sensor_id;sensor_type;location;lat;lon;timestamp;P1;durP1;ratioP1;P2;durP2;ratioP2
40537;SDS011;27925;41.874;12.526;2022-09-03T00:01:28;6.25;;;2.63;;
40537;SDS011;27925;41.874;12.526;2022-09-03T00:04:06;10.55;;;2.40;;
40537;SDS011;27925;41.874;12.526;2022-09-03T00:07:21;5.30;;;2.42;;
40537;SDS011;27925;41.874;12.526;2022-09-03T00:09:37;5.07;;;2.50;;
40537;SDS011;27925;41.874;12.526;2022-09-03T00:17:21;6.93;;;2.88;;
40537;SDS011;27925;41.874;12.526;2022-09-03T00:20:09;5.88;;;2.70;;
40537;SDS011;27925;41.874;12.526;2022-09-03T00:22:47;5.83;;;2.40;;
40537;SDS011;27925;41.874;12.526;2022-09-03T00:28:27;5.70;;;2.10;;
40537;SDS011;27925;41.874;12.526;2022-09-03T00:31:10;8.13;;;2.90;;
40537;SDS011;27925;41.874;12.526;2022-09-03T00:34:49;5.70;;;2.80;;
40537;SDS011;27925;41.874;12.526;2022-09-03T00:36:54;4.53;;;2.33;;
40537;SDS011;27925;41.874;12.526;2022-09-03T00:39:22;5.95;;;2.40;;
40537;SDS011;27925;41.874;12.526;2022-09-03T00:44:53;6.03;;;2.70;;
40537;SDS011;27925;41.874;12.526;2022-09-03T00:47:40;4.70;;;2.10;;
40537;SDS011;27925;41.874;12.526;2022-09-03T00:53:45;6.50;;;2.67;;
40537;SDS011;27925;41.874;12.526;2022-09-03T01:01:54;5.53;;;2.60;;
40537;SDS011;27925;41.874;12.526;2022-09-03T01:15:42;7.53;;;3.03;;
40537;SDS011;27925;41.874;12.526;2022-09-03T01:18:21;8.35;;;3.30;;
40537;SDS011;27925;41.874;12.526;2022-09-03T01:29:14;6.55;;;2.88;;
40537;SDS011;27925;41.874;12.526;2022-09-03T01:34:45;7.40;;;2.75;;
40537;SDS011;27925;41.874;12.526;2022-09-03T01:40:14;6.30;;;2.70;;
40537;SDS011;27925;41.874;12.526;2022-09-03T01:45:50;7.78;;;2.75;;
40537;SDS011;27925;41.874;12.526;2022-09-03T01:48:42;12.88;;;3.28;;
40537;SDS011;27925;41.874;12.526;2022-09-03T02:02:20;10.63;;;3.40;;
40537;SDS011;27925;41.874;12.526;2022-09-03T02:05:00;7.32;;;3.05;;
40537;SDS011;27925;41.874;12.526;2022-09-03T02:07:33;11.35;;;3.10;;
40537;SDS011;27925;41.874;12.526;2022-09-03T02:10:05;8.77;;;3.75;;
40537;SDS011;27925;41.874;12.526;2022-09-03T02:15:30;7.40;;;3.13;;
40537;SDS011;27925;41.874;12.526;2022-09-03T02:17:59;8.98;;;3.25;;
40537;SDS011;27925;41.874;12.526;2022-09-03T02:20:28;6.05;;;3.05;;
40537;SDS011;27925;41.874;12.526;2022-09-03T02:22:54;6.03;;;3.15;;
40537;SDS011;27925;41.874;12.526;2022-09-03T02:25:22;6.82;;;3.00;;
40537;SDS011;27925;41.874;12.526;2022-09-03T02:27:53;10.23;;;3.30;;
40537;SDS011;27925;41.874;12.526;2022-09-03T02:30:19;6.03;;;3.60;;
40537;SDS011;27925;41.874;12.526;2022-09-03T02:32:45;5.30;;;2.67;;
40537;SDS011;27925;41.874;12.526;2022-09-03T02:35:11;10.95;;;3.00;;
40537;SDS011;27925;41.874;12.526;2022-09-03T02:37:37;6.72;;;3.10;;
40537;SDS011;27925;41.874;12.526;2022-09-03T02:40:03;6.00;;;3.15;;
40537;SDS011;27925;41.874;12.526;2022-09-03T02:42:34;7.55;;;3.20;;
40537;SDS011;27925;41.874;12.526;2022-09-03T02:45:06;35.80;;;4.35;;
40537;SDS011;27925;41.874;12.526;2022-09-03T02:47:43;9.02;;;3.78;;
40537;SDS011;27925;41.874;12.526;2022-09-03T02:50:11;6.43;;;3.10;;
40537;SDS011;27925;41.874;12.526;2022-09-03T02:52:37;5.65;;;3.10;;
40537;SDS011;27925;41.874;12.526;2022-09-03T02:55:03;8.45;;;3.53;;
40537;SDS011;27925;41.874;12.526;2022-09-03T02:57:35;9.77;;;3.50;;
40537;SDS011;27925;41.874;12.526;2022-09-03T03:00:01;8.82;;;3.25;;
40537;SDS011;27925;41.874;12.526;2022-09-03T03:02:29;9.45;;;4.07;;
40537;SDS011;27925;41.874;12.526;2022-09-03T03:04:54;6.55;;;3.28;;
40537;SDS011;27925;41.874;12.526;2022-09-03T03:07:20;9.40;;;3.33;;
40537;SDS011;27925;41.874;12.526;2022-09-03T03:09:46;13.40;;;3.45;;
40537;SDS011;27925;41.874;12.526;2022-09-03T03:12:12;6.93;;;3.42;;
40537;SDS011;27925;41.874;12.526;2022-09-03T03:14:37;10.02;;;3.72;;
40537;SDS011;27925;41.874;12.526;2022-09-03T03:17:03;9.05;;;3.58;;
40537;SDS011;27925;41.874;12.526;2022-09-03T03:19:29;6.47;;;3.47;;
40537;SDS011;27925;41.874;12.526;2022-09-03T03:21:55;7.15;;;3.97;;
40537;SDS011;27925;41.874;12.526;2022-09-03T03:24:20;8.88;;;3.88;;
40537;SDS011;27925;41.874;12.526;2022-09-03T03:26:46;6.90;;;3.70;;
40537;SDS011;27925;41.874;12.526;2022-09-03T03:29:15;6.72;;;3.63;;
40537;SDS011;27925;41.874;12.526;2022-09-03T03:31:44;6.18;;;3.80;;
40537;SDS011;27925;41.874;12.526;2022-09-03T03:34:11;7.80;;;3.92;;
40537;SDS011;27925;41.874;12.526;2022-09-03T03:36:37;11.95;;;4.68;;
40537;SDS011;27925;41.874;12.526;2022-09-03T03:39:03;7.63;;;3.88;;
40537;SDS011;27925;41.874;12.526;2022-09-03T03:41:34;9.52;;;4.20;;
40537;SDS011;27925;41.874;12.526;2022-09-03T03:44:01;7.75;;;4.10;;
40537;SDS011;27925;41.874;12.526;2022-09-03T03:46:33;7.88;;;3.92;;
40537;SDS011;27925;41.874;12.526;2022-09-03T03:49:00;8.52;;;4.32;;
40537;SDS011;27925;41.874;12.526;2022-09-03T03:51:26;12.88;;;5.20;;
40537;SDS011;27925;41.874;12.526;2022-09-03T03:53:53;8.30;;;4.00;;
40537;SDS011;27925;41.874;12.526;2022-09-03T03:56:20;12.55;;;4.82;;
40537;SDS011;27925;41.874;12.526;2022-09-03T03:58:49;11.18;;;4.00;;
40537;SDS011;27925;41.874;12.526;2022-09-03T04:01:16;9.38;;;4.10;;
40537;SDS011;27925;41.874;12.526;2022-09-03T04:03:44;12.88;;;4.65;;
40537;SDS011;27925;41.874;12.526;2022-09-03T04:06:11;9.15;;;4.00;;
40537;SDS011;27925;41.874;12.526;2022-09-03T04:08:38;9.55;;;4.40;;
40537;SDS011;27925;41.874;12.526;2022-09-03T04:11:10;9.05;;;3.90;;
40537;SDS011;27925;41.874;12.526;2022-09-03T04:16:09;13.02;;;8.50;;
40537;SDS011;27925;41.874;12.526;2022-09-03T04:18:42;7.53;;;4.18;;
40537;SDS011;27925;41.874;12.526;2022-09-03T04:21:09;9.15;;;4.05;;
40537;SDS011;27925;41.874;12.526;2022-09-03T04:23:40;10.30;;;7.03;;
40537;SDS011;27925;41.874;12.526;2022-09-03T04:26:08;8.35;;;4.50;;
40537;SDS011;27925;41.874;12.526;2022-09-03T04:28:36;7.25;;;4.20;;
40537;SDS011;27925;41.874;12.526;2022-09-03T04:31:04;10.68;;;4.13;;
40537;SDS011;27925;41.874;12.526;2022-09-03T04:33:33;9.60;;;5.18;;
40537;SDS011;27925;41.874;12.526;2022-09-03T04:38:36;8.13;;;4.07;;
40537;SDS011;27925;41.874;12.526;2022-09-03T04:41:04;10.50;;;4.28;;
40537;SDS011;27925;41.874;12.526;2022-09-03T04:43:31;6.78;;;3.88;;
40537;SDS011;27925;41.874;12.526;2022-09-03T04:45:58;9.85;;;4.05;;
40537;SDS011;27925;41.874;12.526;2022-09-03T04:48:29;10.00;;;4.20;;
40537;SDS011;27925;41.874;12.526;2022-09-03T04:51:03;11.82;;;3.90;;
40537;SDS011;27925;41.874;12.526;2022-09-03T04:53:30;7.50;;;3.85;;
40537;SDS011;27925;41.874;12.526;2022-09-03T04:56:02;6.50;;;3.60;;
40537;SDS011;27925;41.874;12.526;2022-09-03T04:58:36;10.20;;;5.20;;
40537;SDS011;27925;41.874;12.526;2022-09-03T05:01:08;8.85;;;4.20;;
40537;SDS011;27925;41.874;12.526;2022-09-03T05:03:35;13.20;;;3.72;;
40537;SDS011;27925;41.874;12.526;2022-09-03T05:06:02;11.20;;;4.15;;
40537;SDS011;27925;41.874;12.526;2022-09-03T05:08:30;9.27;;;3.50;;
40537;SDS011;27925;41.874;12.526;2022-09-03T05:10:58;6.93;;;3.35;;
40537;SDS011;27925;41.874;12.526;2022-09-03T05:13:26;10.77;;;3.08;;
40537;SDS011;27925;41.874;12.526;2022-09-03T05:16:00;8.57;;;3.80;;
40537;SDS011;27925;41.874;12.526;2022-09-03T05:18:29;7.30;;;3.47;;
40537;SDS011;27925;41.874;12.526;2022-09-03T05:20:58;8.77;;;3.53;;
40537;SDS011;27925;41.874;12.526;2022-09-03T05:23:25;9.27;;;3.40;;
40537;SDS011;27925;41.874;12.526;2022-09-03T05:25:58;10.32;;;3.58;;
40537;SDS011;27925;41.874;12.526;2022-09-03T05:28:27;10.93;;;3.58;;
40537;SDS011;27925;41.874;12.526;2022-09-03T05:31:37;7.55;;;3.55;;
40537;SDS011;27925;41.874;12.526;2022-09-03T05:33:46;7.57;;;3.33;;
40537;SDS011;27925;41.874;12.526;2022-09-03T05:36:18;6.88;;;2.78;;
40537;SDS011;27925;41.874;12.526;2022-09-03T05:38:46;8.35;;;3.20;;
40537;SDS011;27925;41.874;12.526;2022-09-03T05:41:12;9.57;;;3.15;;
40537;SDS011;27925;41.874;12.526;2022-09-03T05:43:39;6.60;;;2.78;;
40537;SDS011;27925;41.874;12.526;2022-09-03T05:46:06;11.95;;;3.65;;
40537;SDS011;27925;41.874;12.526;2022-09-03T05:48:36;9.38;;;3.20;;
40537;SDS011;27925;41.874;12.526;2022-09-03T05:51:16;6.10;;;2.67;;
40537;SDS011;27925;41.874;12.526;2022-09-03T05:53:46;8.38;;;2.95;;
40537;SDS011;27925;41.874;12.526;2022-09-03T05:58:45;8.98;;;2.80;;
40537;SDS011;27925;41.874;12.526;2022-09-03T06:01:19;8.15;;;2.83;;
40537;SDS011;27925;41.874;12.526;2022-09-03T06:06:27;9.63;;;3.10;;
40537;SDS011;27925;41.874;12.526;2022-09-03T06:08:56;8.73;;;3.10;;
40537;SDS011;27925;41.874;12.526;2022-09-03T06:11:24;8.23;;;3.10;;
40537;SDS011;27925;41.874;12.526;2022-09-03T06:13:55;7.40;;;3.10;;
40537;SDS011;27925;41.874;12.526;2022-09-03T06:16:24;8.27;;;3.10;;
40537;SDS011;27925;41.874;12.526;2022-09-03T06:18:50;8.63;;;3.30;;
40537;SDS011;27925;41.874;12.526;2022-09-03T06:21:15;5.97;;;3.30;;
40537;SDS011;27925;41.874;12.526;2022-09-03T06:23:41;5.88;;;2.88;;
40537;SDS011;27925;41.874;12.526;2022-09-03T06:26:08;11.15;;;3.00;;
40537;SDS011;27925;41.874;12.526;2022-09-03T06:28:36;5.82;;;2.55;;
40537;SDS011;27925;41.874;12.526;2022-09-03T06:31:03;11.85;;;2.83;;
40537;SDS011;27925;41.874;12.526;2022-09-03T06:33:31;17.05;;;3.10;;
40537;SDS011;27925;41.874;12.526;2022-09-03T06:35:59;7.07;;;3.35;;
40537;SDS011;27925;41.874;12.526;2022-09-03T06:38:27;7.95;;;2.50;;
40537;SDS011;27925;41.874;12.526;2022-09-03T06:40:56;10.65;;;3.35;;
40537;SDS011;27925;41.874;12.526;2022-09-03T06:43:27;12.00;;;3.22;;
40537;SDS011;27925;41.874;12.526;2022-09-03T06:45:57;8.70;;;3.33;;
40537;SDS011;27925;41.874;12.526;2022-09-03T06:48:23;7.13;;;3.47;;
40537;SDS011;27925;41.874;12.526;2022-09-03T06:50:53;9.82;;;3.90;;
40537;SDS011;27925;41.874;12.526;2022-09-03T06:53:27;12.63;;;3.63;;
40537;SDS011;27925;41.874;12.526;2022-09-03T06:55:55;6.38;;;3.40;;
40537;SDS011;27925;41.874;12.526;2022-09-03T06:58:27;7.22;;;3.45;;
40537;SDS011;27925;41.874;12.526;2022-09-03T07:00:59;9.32;;;3.60;;
40537;SDS011;27925;41.874;12.526;2022-09-03T07:03:27;8.95;;;3.15;;
40537;SDS011;27925;41.874;12.526;2022-09-03T07:05:52;12.38;;;3.30;;
40537;SDS011;27925;41.874;12.526;2022-09-03T07:08:18;9.30;;;3.97;;
40537;SDS011;27925;41.874;12.526;2022-09-03T07:11:04;10.57;;;3.50;;
40537;SDS011;27925;41.874;12.526;2022-09-03T07:13:37;13.82;;;3.28;;
40537;SDS011;27925;41.874;12.526;2022-09-03T07:16:07;6.15;;;2.70;;
40537;SDS011;27925;41.874;12.526;2022-09-03T07:18:34;6.97;;;3.03;;
40537;SDS011;27925;41.874;12.526;2022-09-03T07:21:02;11.38;;;2.97;;
40537;SDS011;27925;41.874;12.526;2022-09-03T07:23:31;13.95;;;3.03;;
40537;SDS011;27925;41.874;12.526;2022-09-03T07:25:58;7.07;;;2.78;;
40537;SDS011;27925;41.874;12.526;2022-09-03T07:28:26;8.30;;;2.70;;
40537;SDS011;27925;41.874;12.526;2022-09-03T07:30:53;10.13;;;2.63;;
40537;SDS011;27925;41.874;12.526;2022-09-03T07:33:24;5.72;;;2.70;;
40537;SDS011;27925;41.874;12.526;2022-09-03T07:35:50;6.63;;;2.70;;
40537;SDS011;27925;41.874;12.526;2022-09-03T07:38:17;7.82;;;2.70;;
40537;SDS011;27925;41.874;12.526;2022-09-03T07:40:44;6.03;;;2.60;;
40537;SDS011;27925;41.874;12.526;2022-09-03T07:43:11;6.70;;;2.75;;
40537;SDS011;27925;41.874;12.526;2022-09-03T07:45:40;6.55;;;2.78;;
40537;SDS011;27925;41.874;12.526;2022-09-03T07:48:09;7.47;;;2.80;;
40537;SDS011;27925;41.874;12.526;2022-09-03T07:50:35;9.95;;;2.97;;
40537;SDS011;27925;41.874;12.526;2022-09-03T07:53:04;9.10;;;2.85;;
40537;SDS011;27925;41.874;12.526;2022-09-03T07:55:30;5.82;;;2.72;;
40537;SDS011;27925;41.874;12.526;2022-09-03T07:57:56;10.23;;;3.47;;
40537;SDS011;27925;41.874;12.526;2022-09-03T08:00:23;8.00;;;2.70;;
40537;SDS011;27925;41.874;12.526;2022-09-03T08:02:53;10.73;;;3.35;;
40537;SDS011;27925;41.874;12.526;2022-09-03T08:05:19;6.00;;;2.92;;
40537;SDS011;27925;41.874;12.526;2022-09-03T08:07:45;10.18;;;2.85;;
40537;SDS011;27925;41.874;12.526;2022-09-03T08:10:12;7.82;;;2.58;;
40537;SDS011;27925;41.874;12.526;2022-09-03T08:12:39;7.00;;;3.05;;
40537;SDS011;27925;41.874;12.526;2022-09-03T08:15:05;5.40;;;2.50;;
40537;SDS011;27925;41.874;12.526;2022-09-03T08:17:32;7.03;;;2.60;;
40537;SDS011;27925;41.874;12.526;2022-09-03T08:19:58;6.70;;;2.70;;
40537;SDS011;27925;41.874;12.526;2022-09-03T08:22:24;8.65;;;2.50;;
40537;SDS011;27925;41.874;12.526;2022-09-03T08:24:50;9.75;;;3.05;;
40537;SDS011;27925;41.874;12.526;2022-09-03T08:27:18;5.55;;;2.80;;
40537;SDS011;27925;41.874;12.526;2022-09-03T08:29:48;7.78;;;3.13;;
40537;SDS011;27925;41.874;12.526;2022-09-03T08:32:13;9.02;;;2.83;;
40537;SDS011;27925;41.874;12.526;2022-09-03T08:34:39;7.50;;;3.10;;
40537;SDS011;27925;41.874;12.526;2022-09-03T08:37:05;8.02;;;4.75;;
40537;SDS011;27925;41.874;12.526;2022-09-03T08:39:33;10.75;;;5.22;;
40537;SDS011;27925;41.874;12.526;2022-09-03T08:52:27;8.38;;;2.97;;
40537;SDS011;27925;41.874;12.526;2022-09-03T08:55:12;5.13;;;2.80;;
40537;SDS011;27925;41.874;12.526;2022-09-03T08:57:43;10.57;;;3.38;;
40537;SDS011;27925;41.874;12.526;2022-09-03T09:00:15;8.20;;;3.85;;
40537;SDS011;27925;41.874;12.526;2022-09-03T09:05:48;7.97;;;3.33;;
40537;SDS011;27925;41.874;12.526;2022-09-03T09:08:22;12.00;;;3.22;;
40537;SDS011;27925;41.874;12.526;2022-09-03T09:11:07;11.35;;;3.10;;
40537;SDS011;27925;41.874;12.526;2022-09-03T09:19:51;8.40;;;3.25;;
40537;SDS011;27925;41.874;12.526;2022-09-03T09:22:50;7.10;;;3.40;;
40537;SDS011;27925;41.874;12.526;2022-09-03T09:25:23;12.20;;;4.07;;
40537;SDS011;27925;41.874;12.526;2022-09-03T09:28:00;15.65;;;4.60;;
40537;SDS011;27925;41.874;12.526;2022-09-03T09:30:39;12.10;;;4.05;;
40537;SDS011;27925;41.874;12.526;2022-09-03T09:33:06;13.55;;;4.55;;
40537;SDS011;27925;41.874;12.526;2022-09-03T09:35:32;11.93;;;4.20;;
40537;SDS011;27925;41.874;12.526;2022-09-03T09:37:58;12.45;;;4.20;;
40537;SDS011;27925;41.874;12.526;2022-09-03T09:45:37;11.73;;;4.40;;
40537;SDS011;27925;41.874;12.526;2022-09-03T09:48:09;11.13;;;4.90;;
40537;SDS011;27925;41.874;12.526;2022-09-03T09:53:30;8.65;;;4.65;;
40537;SDS011;27925;41.874;12.526;2022-09-03T09:55:56;6.72;;;3.65;;
40537;SDS011;27925;41.874;12.526;2022-09-03T09:58:25;11.63;;;4.80;;
40537;SDS011;27925;41.874;12.526;2022-09-03T10:00:59;10.10;;;3.90;;
40537;SDS011;27925;41.874;12.526;2022-09-03T10:03:48;12.27;;;4.00;;
40537;SDS011;27925;41.874;12.526;2022-09-03T10:06:21;10.88;;;4.18;;
40537;SDS011;27925;41.874;12.526;2022-09-03T10:09:08;7.82;;;3.63;;
40537;SDS011;27925;41.874;12.526;2022-09-03T10:11:36;10.25;;;3.95;;
40537;SDS011;27925;41.874;12.526;2022-09-03T10:14:07;8.82;;;4.40;;
40537;SDS011;27925;41.874;12.526;2022-09-03T10:16:38;8.57;;;4.95;;
40537;SDS011;27925;41.874;12.526;2022-09-03T10:19:15;14.45;;;5.20;;
40537;SDS011;27925;41.874;12.526;2022-09-03T10:22:06;20.48;;;11.95;;
40537;SDS011;27925;41.874;12.526;2022-09-03T10:24:49;8.50;;;4.60;;
40537;SDS011;27925;41.874;12.526;2022-09-03T10:27:21;7.85;;;4.07;;
40537;SDS011;27925;41.874;12.526;2022-09-03T10:29:48;9.48;;;3.97;;
40537;SDS011;27925;41.874;12.526;2022-09-03T10:40:40;8.82;;;3.95;;
40537;SDS011;27925;41.874;12.526;2022-09-03T10:51:35;8.23;;;3.05;;
40537;SDS011;27925;41.874;12.526;2022-09-03T10:54:21;10.77;;;4.97;;
40537;SDS011;27925;41.874;12.526;2022-09-03T10:57:09;6.45;;;4.10;;
40537;SDS011;27925;41.874;12.526;2022-09-03T10:59:59;8.35;;;3.47;;
40537;SDS011;27925;41.874;12.526;2022-09-03T11:02:54;5.13;;;2.20;;
40537;SDS011;27925;41.874;12.526;2022-09-03T11:05:42;7.05;;;2.58;;
40537;SDS011;27925;41.874;12.526;2022-09-03T11:11:17;5.68;;;2.20;;
40537;SDS011;27925;41.874;12.526;2022-09-03T11:14:08;4.10;;;2.17;;
40537;SDS011;27925;41.874;12.526;2022-09-03T11:16:40;4.80;;;2.25;;
40537;SDS011;27925;41.874;12.526;2022-09-03T11:19:13;7.50;;;2.60;;
40537;SDS011;27925;41.874;12.526;2022-09-03T11:21:43;5.73;;;2.83;;
40537;SDS011;27925;41.874;12.526;2022-09-03T11:24:22;5.13;;;2.78;;
40537;SDS011;27925;41.874;12.526;2022-09-03T11:26:52;7.93;;;3.50;;
40537;SDS011;27925;41.874;12.526;2022-09-03T11:29:44;6.03;;;2.00;;
40537;SDS011;27925;41.874;12.526;2022-09-03T11:34:46;3.90;;;2.20;;
40537;SDS011;27925;41.874;12.526;2022-09-03T11:37:18;6.47;;;2.30;;
40537;SDS011;27925;41.874;12.526;2022-09-03T11:39:53;4.33;;;2.13;;
40537;SDS011;27925;41.874;12.526;2022-09-03T11:42:27;5.40;;;2.42;;
40537;SDS011;27925;41.874;12.526;2022-09-03T11:44:59;7.93;;;2.60;;
40537;SDS011;27925;41.874;12.526;2022-09-03T11:47:48;5.65;;;2.35;;
40537;SDS011;27925;41.874;12.526;2022-09-03T11:50:19;5.05;;;2.45;;
40537;SDS011;27925;41.874;12.526;2022-09-03T11:52:49;9.00;;;2.67;;
40537;SDS011;27925;41.874;12.526;2022-09-03T11:55:27;6.93;;;2.30;;
40537;SDS011;27925;41.874;12.526;2022-09-03T11:57:56;4.95;;;2.20;;
40537;SDS011;27925;41.874;12.526;2022-09-03T12:00:22;7.68;;;2.10;;
40537;SDS011;27925;41.874;12.526;2022-09-03T12:02:56;6.00;;;1.90;;
40537;SDS011;27925;41.874;12.526;2022-09-03T12:22:15;4.00;;;1.70;;
40537;SDS011;27925;41.874;12.526;2022-09-03T12:24:42;6.32;;;1.90;;
40537;SDS011;27925;41.874;12.526;2022-09-03T12:27:11;4.05;;;1.60;;
40537;SDS011;27925;41.874;12.526;2022-09-03T12:29:50;3.42;;;1.55;;
40537;SDS011;27925;41.874;12.526;2022-09-03T12:32:24;3.58;;;1.75;;
40537;SDS011;27925;41.874;12.526;2022-09-03T12:35:16;3.28;;;1.70;;
40537;SDS011;27925;41.874;12.526;2022-09-03T12:37:44;3.13;;;1.77;;
40537;SDS011;27925;41.874;12.526;2022-09-03T12:42:49;5.70;;;2.10;;
40537;SDS011;27925;41.874;12.526;2022-09-03T12:45:25;3.28;;;1.80;;
40537;SDS011;27925;41.874;12.526;2022-09-03T12:47:52;4.13;;;1.80;;
40537;SDS011;27925;41.874;12.526;2022-09-03T12:50:19;5.70;;;2.00;;
40537;SDS011;27925;41.874;12.526;2022-09-03T13:01:04;6.35;;;2.00;;
40537;SDS011;27925;41.874;12.526;2022-09-03T13:03:49;4.22;;;2.05;;
40537;SDS011;27925;41.874;12.526;2022-09-03T13:06:25;3.03;;;1.73;;
40537;SDS011;27925;41.874;12.526;2022-09-03T13:08:54;4.63;;;1.92;;
40537;SDS011;27925;41.874;12.526;2022-09-03T13:11:25;4.03;;;1.80;;
40537;SDS011;27925;41.874;12.526;2022-09-03T13:36:41;3.28;;;1.55;;
40537;SDS011;27925;41.874;12.526;2022-09-03T13:39:21;2.70;;;1.48;;
40537;SDS011;27925;41.874;12.526;2022-09-03T13:41:54;5.57;;;2.00;;
40537;SDS011;27925;41.874;12.526;2022-09-03T13:44:49;2.25;;;1.35;;
40537;SDS011;27925;41.874;12.526;2022-09-03T13:47:41;2.95;;;1.67;;
40537;SDS011;27925;41.874;12.526;2022-09-03T13:50:39;3.58;;;1.40;;
40537;SDS011;27925;41.874;12.526;2022-09-03T13:53:26;4.03;;;1.60;;
40537;SDS011;27925;41.874;12.526;2022-09-03T13:59:03;3.78;;;1.48;;
40537;SDS011;27925;41.874;12.526;2022-09-03T14:01:54;9.82;;;6.00;;
40537;SDS011;27925;41.874;12.526;2022-09-03T14:07:24;5.80;;;1.38;;
40537;SDS011;27925;41.874;12.526;2022-09-03T14:16:06;3.53;;;1.50;;
40537;SDS011;27925;41.874;12.526;2022-09-03T14:18:53;3.47;;;1.50;;
40537;SDS011;27925;41.874;12.526;2022-09-03T14:26:59;2.42;;;1.33;;
40537;SDS011;27925;41.874;12.526;2022-09-03T14:29:30;3.38;;;1.27;;
40537;SDS011;27925;41.874;12.526;2022-09-03T14:37:20;2.78;;;1.40;;
40537;SDS011;27925;41.874;12.526;2022-09-03T14:40:10;2.50;;;1.40;;
40537;SDS011;27925;41.874;12.526;2022-09-03T15:05:14;5.65;;;2.10;;
40537;SDS011;27925;41.874;12.526;2022-09-03T15:07:53;3.25;;;1.58;;
40537;SDS011;27925;41.874;12.526;2022-09-03T15:10:32;3.47;;;1.73;;
40537;SDS011;27925;41.874;12.526;2022-09-03T15:13:26;5.70;;;1.45;;
40537;SDS011;27925;41.874;12.526;2022-09-03T15:40:28;4.22;;;1.70;;
40537;SDS011;27925;41.874;12.526;2022-09-03T15:45:52;6.97;;;1.90;;
40537;SDS011;27925;41.874;12.526;2022-09-03T15:48:36;5.22;;;1.67;;
40537;SDS011;27925;41.874;12.526;2022-09-03T15:51:19;7.38;;;1.70;;
40537;SDS011;27925;41.874;12.526;2022-09-03T15:54:22;3.90;;;1.50;;
40537;SDS011;27925;41.874;12.526;2022-09-03T16:00:03;5.78;;;1.90;;
40537;SDS011;27925;41.874;12.526;2022-09-03T16:03:19;5.47;;;1.75;;
40537;SDS011;27925;41.874;12.526;2022-09-03T16:05:42;4.47;;;1.98;;
40537;SDS011;27925;41.874;12.526;2022-09-03T16:13:49;7.18;;;1.85;;
40537;SDS011;27925;41.874;12.526;2022-09-03T16:19:00;4.03;;;1.75;;
40537;SDS011;27925;41.874;12.526;2022-09-03T16:25:06;4.25;;;1.90;;
40537;SDS011;27925;41.874;12.526;2022-09-03T16:27:23;4.28;;;2.00;;
40537;SDS011;27925;41.874;12.526;2022-09-03T16:30:12;4.78;;;2.20;;
40537;SDS011;27925;41.874;12.526;2022-09-03T16:32:51;9.25;;;2.00;;
40537;SDS011;27925;41.874;12.526;2022-09-03T16:35:23;7.18;;;1.80;;
40537;SDS011;27925;41.874;12.526;2022-09-03T16:38:18;6.80;;;1.80;;
40537;SDS011;27925;41.874;12.526;2022-09-03T16:40:57;4.93;;;1.95;;
40537;SDS011;27925;41.874;12.526;2022-09-03T16:46:41;4.97;;;1.67;;
40537;SDS011;27925;41.874;12.526;2022-09-03T16:49:26;3.03;;;1.80;;
40537;SDS011;27925;41.874;12.526;2022-09-03T16:55:02;8.07;;;2.65;;
40537;SDS011;27925;41.874;12.526;2022-09-03T17:00:21;6.43;;;2.50;;
40537;SDS011;27925;41.874;12.526;2022-09-03T17:14:01;5.60;;;2.10;;
40537;SDS011;27925;41.874;12.526;2022-09-03T17:16:40;4.65;;;1.90;;
40537;SDS011;27925;41.874;12.526;2022-09-03T17:25:21;6.18;;;2.30;;
40537;SDS011;27925;41.874;12.526;2022-09-03T17:30:56;10.52;;;2.42;;
40537;SDS011;27925;41.874;12.526;2022-09-03T17:36:28;6.18;;;2.60;;
40537;SDS011;27925;41.874;12.526;2022-09-03T17:41:41;4.32;;;2.08;;
40537;SDS011;27925;41.874;12.526;2022-09-03T17:44:13;7.38;;;2.08;;
40537;SDS011;27925;41.874;12.526;2022-09-03T17:49:46;7.00;;;2.40;;
40537;SDS011;27925;41.874;12.526;2022-09-03T17:54:58;9.55;;;2.30;;
40537;SDS011;27925;41.874;12.526;2022-09-03T17:57:28;4.63;;;1.77;;
40537;SDS011;27925;41.874;12.526;2022-09-03T18:00:10;5.15;;;2.20;;
40537;SDS011;27925;41.874;12.526;2022-09-03T18:05:55;4.95;;;3.00;;
40537;SDS011;27925;41.874;12.526;2022-09-03T18:11:34;10.77;;;2.40;;
40537;SDS011;27925;41.874;12.526;2022-09-03T18:19:36;5.70;;;2.20;;
40537;SDS011;27925;41.874;12.526;2022-09-03T18:22:49;5.22;;;2.13;;
40537;SDS011;27925;41.874;12.526;2022-09-03T18:25:52;5.55;;;1.70;;
40537;SDS011;27925;41.874;12.526;2022-09-03T18:28:43;6.13;;;2.17;;
40537;SDS011;27925;41.874;12.526;2022-09-03T18:31:33;5.47;;;2.13;;
40537;SDS011;27925;41.874;12.526;2022-09-03T18:34:20;4.57;;;1.83;;
40537;SDS011;27925;41.874;12.526;2022-09-03T18:37:14;3.90;;;2.10;;
40537;SDS011;27925;41.874;12.526;2022-09-03T18:40:05;6.03;;;1.90;;
40537;SDS011;27925;41.874;12.526;2022-09-03T18:45:46;5.13;;;2.03;;
40537;SDS011;27925;41.874;12.526;2022-09-03T19:01:08;5.50;;;2.30;;
40537;SDS011;27925;41.874;12.526;2022-09-03T19:07:07;5.72;;;1.98;;
40537;SDS011;27925;41.874;12.526;2022-09-03T19:09:56;5.10;;;2.10;;
40537;SDS011;27925;41.874;12.526;2022-09-03T19:13:34;6.38;;;2.17;;
40537;SDS011;27925;41.874;12.526;2022-09-03T19:15:59;5.80;;;2.50;;
40537;SDS011;27925;41.874;12.526;2022-09-03T19:22:10;4.63;;;2.17;;
40537;SDS011;27925;41.874;12.526;2022-09-03T19:25:09;6.03;;;3.20;;
40537;SDS011;27925;41.874;12.526;2022-09-03T19:52:23;4.35;;;2.15;;
40537;SDS011;27925;41.874;12.526;2022-09-03T19:55:14;5.97;;;2.47;;
40537;SDS011;27925;41.874;12.526;2022-09-03T19:58:06;6.32;;;2.38;;
40537;SDS011;27925;41.874;12.526;2022-09-03T20:00:53;6.43;;;2.75;;
40537;SDS011;27925;41.874;12.526;2022-09-03T20:03:37;5.97;;;2.22;;
40537;SDS011;27925;41.874;12.526;2022-09-03T20:06:21;3.83;;;2.40;;
40537;SDS011;27925;41.874;12.526;2022-09-03T20:09:07;6.68;;;2.60;;
40537;SDS011;27925;41.874;12.526;2022-09-03T20:11:55;8.25;;;3.42;;
40537;SDS011;27925;41.874;12.526;2022-09-03T20:14:22;6.80;;;2.78;;
40537;SDS011;27925;41.874;12.526;2022-09-03T20:19:52;7.75;;;2.55;;
40537;SDS011;27925;41.874;12.526;2022-09-03T20:23:01;7.53;;;3.00;;
40537;SDS011;27925;41.874;12.526;2022-09-03T20:25:48;6.30;;;2.47;;
40537;SDS011;27925;41.874;12.526;2022-09-03T20:37:43;8.10;;;3.30;;
40537;SDS011;27925;41.874;12.526;2022-09-03T20:40:25;6.50;;;2.88;;
40537;SDS011;27925;41.874;12.526;2022-09-03T20:43:02;5.00;;;2.63;;
40537;SDS011;27925;41.874;12.526;2022-09-03T20:45:59;5.22;;;2.40;;
40537;SDS011;27925;41.874;12.526;2022-09-03T20:51:19;7.85;;;4.63;;
40537;SDS011;27925;41.874;12.526;2022-09-03T20:59:55;8.13;;;2.60;;
40537;SDS011;27925;41.874;12.526;2022-09-03T21:11:14;4.60;;;2.28;;
40537;SDS011;27925;41.874;12.526;2022-09-03T21:19:20;6.28;;;2.03;;
40537;SDS011;27925;41.874;12.526;2022-09-03T21:22:21;3.90;;;1.92;;
40537;SDS011;27925;41.874;12.526;2022-09-03T21:25:00;5.97;;;2.58;;
40537;SDS011;27925;41.874;12.526;2022-09-03T21:27:32;7.25;;;3.30;;
40537;SDS011;27925;41.874;12.526;2022-09-03T21:30:08;6.97;;;3.47;;
40537;SDS011;27925;41.874;12.526;2022-09-03T21:40:25;6.57;;;3.65;;
40537;SDS011;27925;41.874;12.526;2022-09-03T21:43:11;7.25;;;3.72;;
40537;SDS011;27925;41.874;12.526;2022-09-03T21:45:46;8.68;;;3.65;;
40537;SDS011;27925;41.874;12.526;2022-09-03T21:48:28;7.38;;;3.90;;
40537;SDS011;27925;41.874;12.526;2022-09-03T21:51:00;7.50;;;4.03;;
40537;SDS011;27925;41.874;12.526;2022-09-03T21:53:40;7.05;;;3.47;;
40537;SDS011;27925;41.874;12.526;2022-09-03T21:59:20;6.72;;;3.47;;
40537;SDS011;27925;41.874;12.526;2022-09-03T22:02:24;7.38;;;3.35;;